sensor_id;sensor_type;location;lat;lon;timestamp;temperature;humidity
76567;DHT22;65428;53.194;6.132;2023-02-28T00:01:22;4.00;99.90
76567;DHT22;65428;53.194;6.132;2023-02-28T00:03:48;4.00;99.90
76567;DHT22;65428;53.194;6.132;2023-02-28T00:06:14;4.00;99.90
76567;DHT22;65428;53.194;6.132;2023-02-28T00:08:40;4.20;99.90
76567;DHT22;65428;53.194;6.132;2023-02-28T00:11:08;4.10;99.90
76567;DHT22;65428;53.194;6.132;2023-02-28T00:13:36;4.10;99.90
76567;DHT22;65428;53.194;6.132;2023-02-28T00:16:06;4.20;99.90
76567;DHT22;65428;53.194;6.132;2023-02-28T00:18:32;4.10;99.90
76567;DHT22;65428;53.194;6.132;2023-02-28T00:20:58;4.20;99.90
76567;DHT22;65428;53.194;6.132;2023-02-28T00:23:24;4.30;99.90
76567;DHT22;65428;53.194;6.132;2023-02-28T00:25:50;4.20;99.90
76567;DHT22;65428;53.194;6.132;2023-02-28T00:28:16;4.20;99.90
76567;DHT22;65428;53.194;6.132;2023-02-28T00:30:42;4.20;99.90
76567;DHT22;65428;53.194;6.132;2023-02-28T00:33:08;4.20;99.90
76567;DHT22;65428;53.194;6.132;2023-02-28T00:35:34;4.10;99.90
76567;DHT22;65428;53.194;6.132;2023-02-28T00:37:59;4.10;99.90
76567;DHT22;65428;53.194;6.132;2023-02-28T00:40:25;4.10;99.90
76567;DHT22;65428;53.194;6.132;2023-02-28T00:42:50;4.10;99.90
76567;DHT22;65428;53.194;6.132;2023-02-28T00:45:16;4.10;99.90
76567;DHT22;65428;53.194;6.132;2023-02-28T00:47:42;4.10;99.90
76567;DHT22;65428;53.194;6.132;2023-02-28T00:50:08;4.20;99.90
76567;DHT22;65428;53.194;6.132;2023-02-28T00:52:34;4.10;99.90
76567;DHT22;65428;53.194;6.132;2023-02-28T00:55:00;4.10;99.90
76567;DHT22;65428;53.194;6.132;2023-02-28T00:57:25;4.10;99.90
76567;DHT22;65428;53.194;6.132;2023-02-28T00:59:51;4.10;99.90
76567;DHT22;65428;53.194;6.132;2023-02-28T01:02:20;4.00;99.90
76567;DHT22;65428;53.194;6.132;2023-02-28T01:04:46;4.00;99.90
76567;DHT22;65428;53.194;6.132;2023-02-28T01:07:12;4.00;99.90
76567;DHT22;65428;53.194;6.132;2023-02-28T01:09:40;4.10;99.90
76567;DHT22;65428;53.194;6.132;2023-02-28T01:12:07;4.10;99.90
76567;DHT22;65428;53.194;6.132;2023-02-28T01:14:33;4.20;99.90
76567;DHT22;65428;53.194;6.132;2023-02-28T01:16:58;4.40;99.90
76567;DHT22;65428;53.194;6.132;2023-02-28T01:19:24;4.30;99.90
76567;DHT22;65428;53.194;6.132;2023-02-28T01:21:49;4.30;99.90
76567;DHT22;65428;53.194;6.132;2023-02-28T01:24:15;4.30;99.90
76567;DHT22;65428;53.194;6.132;2023-02-28T01:26:41;4.40;99.90
76567;DHT22;65428;53.194;6.132;2023-02-28T01:29:06;4.40;99.90
76567;DHT22;65428;53.194;6.132;2023-02-28T01:31:32;4.40;99.90
76567;DHT22;65428;53.194;6.132;2023-02-28T01:33:58;4.30;99.90
76567;DHT22;65428;53.194;6.132;2023-02-28T01:36:24;4.30;99.90
76567;DHT22;65428;53.194;6.132;2023-02-28T01:38:50;4.30;99.90
76567;DHT22;65428;53.194;6.132;2023-02-28T01:46:13;4.30;99.90
76567;DHT22;65428;53.194;6.132;2023-02-28T01:48:45;4.50;99.90
76567;DHT22;65428;53.194;6.132;2023-02-28T01:51:17;4.30;99.90
76567;DHT22;65428;53.194;6.132;2023-02-28T01:54:05;4.30;99.90
76567;DHT22;65428;53.194;6.132;2023-02-28T01:56:34;4.30;99.90
76567;DHT22;65428;53.194;6.132;2023-02-28T01:59:01;4.20;99.90
76567;DHT22;65428;53.194;6.132;2023-02-28T02:01:27;4.30;99.90
76567;DHT22;65428;53.194;6.132;2023-02-28T02:03:55;4.20;99.90
76567;DHT22;65428;53.194;6.132;2023-02-28T02:06:30;4.20;99.90
76567;DHT22;65428;53.194;6.132;2023-02-28T02:08:56;4.20;99.90
76567;DHT22;65428;53.194;6.132;2023-02-28T02:11:25;4.20;99.90
76567;DHT22;65428;53.194;6.132;2023-02-28T02:23:08;4.40;99.90
76567;DHT22;65428;53.194;6.132;2023-02-28T02:28:34;4.40;99.90
76567;DHT22;65428;53.194;6.132;2023-02-28T02:33:49;4.40;99.90
76567;DHT22;65428;53.194;6.132;2023-02-28T02:36:27;4.40;99.90
76567;DHT22;65428;53.194;6.132;2023-02-28T02:39:13;4.40;99.90
76567;DHT22;65428;53.194;6.132;2023-02-28T02:42:02;4.50;99.90
76567;DHT22;65428;53.194;6.132;2023-02-28T02:44:53;4.40;99.90
76567;DHT22;65428;53.194;6.132;2023-02-28T02:47:24;4.40;99.90
76567;DHT22;65428;53.194;6.132;2023-02-28T02:49:56;4.40;99.90
76567;DHT22;65428;53.194;6.132;2023-02-28T02:52:27;4.50;99.90
76567;DHT22;65428;53.194;6.132;2023-02-28T02:54:55;4.50;99.90
76567;DHT22;65428;53.194;6.132;2023-02-28T02:57:30;4.50;99.90
76567;DHT22;65428;53.194;6.132;2023-02-28T02:59:58;4.60;99.90
76567;DHT22;65428;53.194;6.132;2023-02-28T03:02:26;4.60;99.90
76567;DHT22;65428;53.194;6.132;2023-02-28T03:05:46;4.60;99.90
76567;DHT22;65428;53.194;6.132;2023-02-28T03:07:46;4.60;99.90
76567;DHT22;65428;53.194;6.132;2023-02-28T03:10:34;4.60;99.90
76567;DHT22;65428;53.194;6.132;2023-02-28T03:24:45;4.70;99.90
76567;DHT22;65428;53.194;6.132;2023-02-28T03:29:47;4.70;99.90
76567;DHT22;65428;53.194;6.132;2023-02-28T03:32:30;4.80;99.90
76567;DHT22;65428;53.194;6.132;2023-02-28T03:37:25;4.80;99.90
76567;DHT22;65428;53.194;6.132;2023-02-28T03:39:57;4.80;99.90
76567;DHT22;65428;53.194;6.132;2023-02-28T03:42:27;4.90;99.90
76567;DHT22;65428;53.194;6.132;2023-02-28T03:45:04;4.90;99.90
76567;DHT22;65428;53.194;6.132;2023-02-28T03:50:15;4.80;99.90
76567;DHT22;65428;53.194;6.132;2023-02-28T03:52:54;4.80;99.90
76567;DHT22;65428;53.194;6.132;2023-02-28T03:55:30;4.90;99.90
76567;DHT22;65428;53.194;6.132;2023-02-28T03:58:05;4.90;99.90
76567;DHT22;65428;53.194;6.132;2023-02-28T04:00:37;4.90;99.90
76567;DHT22;65428;53.194;6.132;2023-02-28T04:03:04;4.90;99.90
76567;DHT22;65428;53.194;6.132;2023-02-28T04:05:30;4.90;99.90
76567;DHT22;65428;53.194;6.132;2023-02-28T04:08:07;4.90;99.90
76567;DHT22;65428;53.194;6.132;2023-02-28T04:10:33;5.00;99.90
76567;DHT22;65428;53.194;6.132;2023-02-28T04:12:58;4.90;99.90
76567;DHT22;65428;53.194;6.132;2023-02-28T04:15:24;5.00;99.90
76567;DHT22;65428;53.194;6.132;2023-02-28T04:17:50;4.90;99.90
76567;DHT22;65428;53.194;6.132;2023-02-28T04:20:16;4.90;99.90
76567;DHT22;65428;53.194;6.132;2023-02-28T04:22:42;5.00;99.90
76567;DHT22;65428;53.194;6.132;2023-02-28T04:25:07;5.00;99.90
76567;DHT22;65428;53.194;6.132;2023-02-28T04:27:33;4.90;99.90
76567;DHT22;65428;53.194;6.132;2023-02-28T04:29:59;4.90;99.90
76567;DHT22;65428;53.194;6.132;2023-02-28T04:32:25;4.90;99.90
76567;DHT22;65428;53.194;6.132;2023-02-28T04:34:50;4.90;99.90
76567;DHT22;65428;53.194;6.132;2023-02-28T04:37:16;5.00;99.90
76567;DHT22;65428;53.194;6.132;2023-02-28T04:39:42;5.20;99.90
76567;DHT22;65428;53.194;6.132;2023-02-28T04:42:08;5.00;99.90
76567;DHT22;65428;53.194;6.132;2023-02-28T04:44:33;5.00;99.90
76567;DHT22;65428;53.194;6.132;2023-02-28T04:46:59;5.10;99.90
76567;DHT22;65428;53.194;6.132;2023-02-28T04:49:25;5.00;99.90
76567;DHT22;65428;53.194;6.132;2023-02-28T04:51:50;5.00;99.90
76567;DHT22;65428;53.194;6.132;2023-02-28T04:54:16;5.00;99.90
76567;DHT22;65428;53.194;6.132;2023-02-28T04:56:43;5.00;99.90
76567;DHT22;65428;53.194;6.132;2023-02-28T04:59:08;5.00;99.90
76567;DHT22;65428;53.194;6.132;2023-02-28T05:01:34;5.00;99.90
76567;DHT22;65428;53.194;6.132;2023-02-28T05:04:03;5.10;99.90
76567;DHT22;65428;53.194;6.132;2023-02-28T05:06:31;5.00;99.90
76567;DHT22;65428;53.194;6.132;2023-02-28T05:08:57;5.10;99.90
76567;DHT22;65428;53.194;6.132;2023-02-28T05:11:31;5.20;99.90
76567;DHT22;65428;53.194;6.132;2023-02-28T05:14:10;4.90;99.90
76567;DHT22;65428;53.194;6.132;2023-02-28T05:16:36;5.00;99.90
76567;DHT22;65428;53.194;6.132;2023-02-28T05:19:02;5.00;99.90
76567;DHT22;65428;53.194;6.132;2023-02-28T05:21:36;4.90;99.90
76567;DHT22;65428;53.194;6.132;2023-02-28T05:24:11;4.80;99.90
76567;DHT22;65428;53.194;6.132;2023-02-28T05:26:39;4.70;99.90
76567;DHT22;65428;53.194;6.132;2023-02-28T05:29:05;4.70;99.90
76567;DHT22;65428;53.194;6.132;2023-02-28T05:31:31;4.70;99.90
76567;DHT22;65428;53.194;6.132;2023-02-28T05:33:57;4.60;99.90
76567;DHT22;65428;53.194;6.132;2023-02-28T05:36:23;4.60;99.90
76567;DHT22;65428;53.194;6.132;2023-02-28T05:38:49;4.60;99.90
76567;DHT22;65428;53.194;6.132;2023-02-28T05:41:16;4.50;99.90
76567;DHT22;65428;53.194;6.132;2023-02-28T05:43:42;4.50;99.90
76567;DHT22;65428;53.194;6.132;2023-02-28T05:46:10;4.40;99.90
76567;DHT22;65428;53.194;6.132;2023-02-28T05:48:38;4.40;99.90
76567;DHT22;65428;53.194;6.132;2023-02-28T05:51:05;4.30;99.90
76567;DHT22;65428;53.194;6.132;2023-02-28T05:53:31;4.10;99.90
76567;DHT22;65428;53.194;6.132;2023-02-28T05:55:57;4.20;99.90
76567;DHT22;65428;53.194;6.132;2023-02-28T05:58:23;4.10;99.90
76567;DHT22;65428;53.194;6.132;2023-02-28T06:00:51;4.00;99.90
76567;DHT22;65428;53.194;6.132;2023-02-28T06:03:16;4.00;99.90
76567;DHT22;65428;53.194;6.132;2023-02-28T06:05:42;3.90;99.90
76567;DHT22;65428;53.194;6.132;2023-02-28T06:08:08;3.90;99.90
76567;DHT22;65428;53.194;6.132;2023-02-28T06:10:34;3.90;99.90
76567;DHT22;65428;53.194;6.132;2023-02-28T06:13:01;3.90;99.90
76567;DHT22;65428;53.194;6.132;2023-02-28T06:15:30;3.90;99.90
76567;DHT22;65428;53.194;6.132;2023-02-28T06:17:56;3.80;99.90
76567;DHT22;65428;53.194;6.132;2023-02-28T06:20:23;3.80;99.90
76567;DHT22;65428;53.194;6.132;2023-02-28T06:22:49;3.80;99.90
76567;DHT22;65428;53.194;6.132;2023-02-28T06:25:17;3.80;99.90
76567;DHT22;65428;53.194;6.132;2023-02-28T06:27:43;3.80;99.90
76567;DHT22;65428;53.194;6.132;2023-02-28T06:30:10;3.80;99.90
76567;DHT22;65428;53.194;6.132;2023-02-28T06:32:36;3.80;99.90
76567;DHT22;65428;53.194;6.132;2023-02-28T06:35:02;3.80;99.90
76567;DHT22;65428;53.194;6.132;2023-02-28T06:37:30;3.80;99.90
76567;DHT22;65428;53.194;6.132;2023-02-28T06:39:55;3.80;99.90
76567;DHT22;65428;53.194;6.132;2023-02-28T06:42:22;3.70;99.90
76567;DHT22;65428;53.194;6.132;2023-02-28T06:44:50;3.70;99.90
76567;DHT22;65428;53.194;6.132;2023-02-28T06:47:16;3.70;99.90
76567;DHT22;65428;53.194;6.132;2023-02-28T06:49:42;3.70;99.90
76567;DHT22;65428;53.194;6.132;2023-02-28T06:52:08;3.70;99.90
76567;DHT22;65428;53.194;6.132;2023-02-28T06:54:36;3.70;99.90
76567;DHT22;65428;53.194;6.132;2023-02-28T06:57:02;3.70;99.90
76567;DHT22;65428;53.194;6.132;2023-02-28T06:59:28;3.60;99.90
76567;DHT22;65428;53.194;6.132;2023-02-28T07:01:54;3.60;99.90
76567;DHT22;65428;53.194;6.132;2023-02-28T07:04:20;3.70;99.90
76567;DHT22;65428;53.194;6.132;2023-02-28T07:06:46;3.60;99.90
76567;DHT22;65428;53.194;6.132;2023-02-28T07:09:12;3.60;99.90
76567;DHT22;65428;53.194;6.132;2023-02-28T07:11:39;3.60;99.90
76567;DHT22;65428;53.194;6.132;2023-02-28T07:14:06;3.50;99.90
76567;DHT22;65428;53.194;6.132;2023-02-28T07:16:32;3.50;99.90
76567;DHT22;65428;53.194;6.132;2023-02-28T07:18:58;3.50;99.90
76567;DHT22;65428;53.194;6.132;2023-02-28T07:21:24;3.50;99.90
76567;DHT22;65428;53.194;6.132;2023-02-28T07:23:50;3.40;99.90
76567;DHT22;65428;53.194;6.132;2023-02-28T07:26:18;3.40;99.90
76567;DHT22;65428;53.194;6.132;2023-02-28T07:28:46;3.40;99.90
76567;DHT22;65428;53.194;6.132;2023-02-28T07:31:12;3.40;99.90
76567;DHT22;65428;53.194;6.132;2023-02-28T07:33:39;3.40;99.90
76567;DHT22;65428;53.194;6.132;2023-02-28T07:36:08;3.40;99.90
76567;DHT22;65428;53.194;6.132;2023-02-28T07:38:35;3.40;99.90
76567;DHT22;65428;53.194;6.132;2023-02-28T07:41:01;3.50;99.90
76567;DHT22;65428;53.194;6.132;2023-02-28T07:43:30;3.40;99.90
76567;DHT22;65428;53.194;6.132;2023-02-28T07:46:05;3.40;99.90
76567;DHT22;65428;53.194;6.132;2023-02-28T07:48:31;3.40;99.90
76567;DHT22;65428;53.194;6.132;2023-02-28T07:50:58;3.40;99.90
76567;DHT22;65428;53.194;6.132;2023-02-28T07:53:24;3.40;99.90
76567;DHT22;65428;53.194;6.132;2023-02-28T07:55:50;3.40;99.90
76567;DHT22;65428;53.194;6.132;2023-02-28T07:58:16;3.50;99.90
76567;DHT22;65428;53.194;6.132;2023-02-28T08:00:42;3.40;99.90
76567;DHT22;65428;53.194;6.132;2023-02-28T08:03:11;3.50;99.90
76567;DHT22;65428;53.194;6.132;2023-02-28T08:05:40;3.70;99.90
76567;DHT22;65428;53.194;6.132;2023-02-28T08:08:07;3.40;99.90
76567;DHT22;65428;53.194;6.132;2023-02-28T08:10:33;3.40;99.90
76567;DHT22;65428;53.194;6.132;2023-02-28T08:12:59;3.50;99.90
76567;DHT22;65428;53.194;6.132;2023-02-28T08:15:25;3.50;99.90
76567;DHT22;65428;53.194;6.132;2023-02-28T08:17:51;3.50;99.90
76567;DHT22;65428;53.194;6.132;2023-02-28T08:20:17;3.50;99.90
76567;DHT22;65428;53.194;6.132;2023-02-28T08:22:42;3.50;99.90
76567;DHT22;65428;53.194;6.132;2023-02-28T08:25:08;3.60;99.90
76567;DHT22;65428;53.194;6.132;2023-02-28T08:27:35;3.70;99.90
76567;DHT22;65428;53.194;6.132;2023-02-28T08:30:02;3.70;99.90
76567;DHT22;65428;53.194;6.132;2023-02-28T08:32:28;3.70;99.90
76567;DHT22;65428;53.194;6.132;2023-02-28T08:34:54;3.70;99.90
76567;DHT22;65428;53.194;6.132;2023-02-28T08:37:19;3.80;99.90
76567;DHT22;65428;53.194;6.132;2023-02-28T08:39:45;3.70;99.90
76567;DHT22;65428;53.194;6.132;2023-02-28T08:42:11;3.80;99.90
76567;DHT22;65428;53.194;6.132;2023-02-28T08:44:36;3.90;99.90
76567;DHT22;65428;53.194;6.132;2023-02-28T08:47:02;4.00;99.90
76567;DHT22;65428;53.194;6.132;2023-02-28T08:49:28;4.20;99.90
76567;DHT22;65428;53.194;6.132;2023-02-28T08:51:54;4.00;99.90
76567;DHT22;65428;53.194;6.132;2023-02-28T08:54:20;4.10;99.90
76567;DHT22;65428;53.194;6.132;2023-02-28T08:56:46;4.20;99.90
76567;DHT22;65428;53.194;6.132;2023-02-28T08:59:13;4.20;99.90
76567;DHT22;65428;53.194;6.132;2023-02-28T09:01:39;4.30;99.90
76567;DHT22;65428;53.194;6.132;2023-02-28T09:04:07;4.60;99.90
76567;DHT22;65428;53.194;6.132;2023-02-28T09:06:34;4.70;99.90
76567;DHT22;65428;53.194;6.132;2023-02-28T09:09:00;4.40;99.90
76567;DHT22;65428;53.194;6.132;2023-02-28T09:11:27;4.80;99.90
76567;DHT22;65428;53.194;6.132;2023-02-28T09:13:53;5.10;99.90
76567;DHT22;65428;53.194;6.132;2023-02-28T09:16:21;5.10;99.90
76567;DHT22;65428;53.194;6.132;2023-02-28T09:18:47;5.30;99.90
76567;DHT22;65428;53.194;6.132;2023-02-28T09:21:15;5.10;99.90
76567;DHT22;65428;53.194;6.132;2023-02-28T09:23:43;5.10;99.90
76567;DHT22;65428;53.194;6.132;2023-02-28T09:26:14;5.10;99.90
76567;DHT22;65428;53.194;6.132;2023-02-28T09:28:40;5.20;99.90
76567;DHT22;65428;53.194;6.132;2023-02-28T09:31:05;5.20;99.90
76567;DHT22;65428;53.194;6.132;2023-02-28T09:33:31;5.20;99.90
76567;DHT22;65428;53.194;6.132;2023-02-28T09:35:59;5.30;99.90
76567;DHT22;65428;53.194;6.132;2023-02-28T09:38:25;5.20;99.90
76567;DHT22;65428;53.194;6.132;2023-02-28T09:41:04;5.30;99.90
76567;DHT22;65428;53.194;6.132;2023-02-28T09:43:35;5.40;99.90
76567;DHT22;65428;53.194;6.132;2023-02-28T09:48:42;5.70;99.90
76567;DHT22;65428;53.194;6.132;2023-02-28T09:51:30;5.80;99.80
76567;DHT22;65428;53.194;6.132;2023-02-28T09:53:58;6.00;99.80
76567;DHT22;65428;53.194;6.132;2023-02-28T09:56:31;6.20;98.30
76567;DHT22;65428;53.194;6.132;2023-02-28T10:04:50;7.10;96.70
76567;DHT22;65428;53.194;6.132;2023-02-28T10:07:41;7.40;97.10
76567;DHT22;65428;53.194;6.132;2023-02-28T10:10:38;7.60;96.20
76567;DHT22;65428;53.194;6.132;2023-02-28T10:13:28;7.60;93.50
76567;DHT22;65428;53.194;6.132;2023-02-28T10:16:20;7.50;94.30
76567;DHT22;65428;53.194;6.132;2023-02-28T10:18:51;8.10;93.20
76567;DHT22;65428;53.194;6.132;2023-02-28T10:21:26;8.20;93.10
76567;DHT22;65428;53.194;6.132;2023-02-28T10:24:01;8.30;93.50
76567;DHT22;65428;53.194;6.132;2023-02-28T10:26:29;9.00;94.00
76567;DHT22;65428;53.194;6.132;2023-02-28T10:28:56;9.50;92.30
76567;DHT22;65428;53.194;6.132;2023-02-28T10:31:21;10.00;88.60
76567;DHT22;65428;53.194;6.132;2023-02-28T10:33:47;10.20;89.40
76567;DHT22;65428;53.194;6.132;2023-02-28T10:36:19;10.60;86.30
76567;DHT22;65428;53.194;6.132;2023-02-28T10:38:46;10.90;84.10
76567;DHT22;65428;53.194;6.132;2023-02-28T10:41:27;11.10;76.80
76567;DHT22;65428;53.194;6.132;2023-02-28T10:44:21;11.30;75.20
76567;DHT22;65428;53.194;6.132;2023-02-28T10:46:48;11.40;73.40
76567;DHT22;65428;53.194;6.132;2023-02-28T10:49:22;11.60;70.40
76567;DHT22;65428;53.194;6.132;2023-02-28T10:51:52;11.60;70.50
76567;DHT22;65428;53.194;6.132;2023-02-28T10:54:34;11.60;70.90
76567;DHT22;65428;53.194;6.132;2023-02-28T10:59:32;12.00;71.50
76567;DHT22;65428;53.194;6.132;2023-02-28T11:01:58;12.00;62.80
76567;DHT22;65428;53.194;6.132;2023-02-28T11:09:32;11.50;63.60
76567;DHT22;65428;53.194;6.132;2023-02-28T11:12:01;11.50;67.80
76567;DHT22;65428;53.194;6.132;2023-02-28T11:14:29;11.60;68.00
76567;DHT22;65428;53.194;6.132;2023-02-28T11:16:58;11.90;71.80
76567;DHT22;65428;53.194;6.132;2023-02-28T11:19:30;11.50;67.40
76567;DHT22;65428;53.194;6.132;2023-02-28T11:22:01;11.80;68.00
76567;DHT22;65428;53.194;6.132;2023-02-28T11:24:35;12.00;64.50
76567;DHT22;65428;53.194;6.132;2023-02-28T11:27:03;12.20;57.30
76567;DHT22;65428;53.194;6.132;2023-02-28T11:29:30;12.40;60.40
76567;DHT22;65428;53.194;6.132;2023-02-28T11:34:41;12.80;60.90
76567;DHT22;65428;53.194;6.132;2023-02-28T11:37:13;12.90;55.00
76567;DHT22;65428;53.194;6.132;2023-02-28T11:39:39;13.00;57.00
76567;DHT22;65428;53.194;6.132;2023-02-28T11:43:01;13.10;55.10
76567;DHT22;65428;53.194;6.132;2023-02-28T11:45:35;13.20;59.00
76567;DHT22;65428;53.194;6.132;2023-02-28T11:48:22;13.40;60.70
76567;DHT22;65428;53.194;6.132;2023-02-28T11:58:42;14.60;54.80
76567;DHT22;65428;53.194;6.132;2023-02-28T12:12:23;16.00;48.70
76567;DHT22;65428;53.194;6.132;2023-02-28T12:15:47;16.10;48.10
76567;DHT22;65428;53.194;6.132;2023-02-28T12:28:58;15.70;43.90
76567;DHT22;65428;53.194;6.132;2023-02-28T12:31:34;15.50;48.90
76567;DHT22;65428;53.194;6.132;2023-02-28T12:34:04;15.40;47.20
76567;DHT22;65428;53.194;6.132;2023-02-28T12:36:33;15.70;46.80
76567;DHT22;65428;53.194;6.132;2023-02-28T12:39:15;16.10;45.50
76567;DHT22;65428;53.194;6.132;2023-02-28T12:41:51;16.30;46.90
76567;DHT22;65428;53.194;6.132;2023-02-28T12:44:32;16.70;46.00
76567;DHT22;65428;53.194;6.132;2023-02-28T12:47:02;16.90;49.80
76567;DHT22;65428;53.194;6.132;2023-02-28T12:49:34;17.00;46.30
76567;DHT22;65428;53.194;6.132;2023-02-28T12:52:03;16.70;43.20
76567;DHT22;65428;53.194;6.132;2023-02-28T12:59:48;16.50;43.20
76567;DHT22;65428;53.194;6.132;2023-02-28T13:10:49;14.50;49.60
76567;DHT22;65428;53.194;6.132;2023-02-28T13:13:21;14.20;49.30
76567;DHT22;65428;53.194;6.132;2023-02-28T13:16:14;14.00;54.20
76567;DHT22;65428;53.194;6.132;2023-02-28T13:18:45;13.90;51.10
76567;DHT22;65428;53.194;6.132;2023-02-28T13:21:28;13.30;50.20
76567;DHT22;65428;53.194;6.132;2023-02-28T13:34:31;12.60;59.40
76567;DHT22;65428;53.194;6.132;2023-02-28T13:40:07;12.30;52.10
76567;DHT22;65428;53.194;6.132;2023-02-28T13:42:36;12.20;58.80
76567;DHT22;65428;53.194;6.132;2023-02-28T13:47:42;11.90;55.60
76567;DHT22;65428;53.194;6.132;2023-02-28T13:55:59;11.10;56.60
76567;DHT22;65428;53.194;6.132;2023-02-28T14:06:55;12.50;57.60
76567;DHT22;65428;53.194;6.132;2023-02-28T14:09:31;13.10;55.40
76567;DHT22;65428;53.194;6.132;2023-02-28T14:15:03;14.40;49.10
76567;DHT22;65428;53.194;6.132;2023-02-28T14:17:31;14.60;49.70
76567;DHT22;65428;53.194;6.132;2023-02-28T14:19:57;14.40;47.50
76567;DHT22;65428;53.194;6.132;2023-02-28T14:22:50;14.20;50.70
76567;DHT22;65428;53.194;6.132;2023-02-28T14:31:04;14.10;48.40
76567;DHT22;65428;53.194;6.132;2023-02-28T14:33:58;13.80;47.20
76567;DHT22;65428;53.194;6.132;2023-02-28T14:36:33;13.10;50.30
76567;DHT22;65428;53.194;6.132;2023-02-28T14:39:19;13.20;51.90
76567;DHT22;65428;53.194;6.132;2023-02-28T14:41:46;12.80;47.80
76567;DHT22;65428;53.194;6.132;2023-02-28T14:44:19;12.60;51.90
76567;DHT22;65428;53.194;6.132;2023-02-28T14:46:48;12.70;53.10
76567;DHT22;65428;53.194;6.132;2023-02-28T14:49:35;13.40;51.40
76567;DHT22;65428;53.194;6.132;2023-02-28T14:52:20;13.90;52.80
76567;DHT22;65428;53.194;6.132;2023-02-28T14:55:05;14.00;51.80
76567;DHT22;65428;53.194;6.132;2023-02-28T14:57:41;14.20;51.50
76567;DHT22;65428;53.194;6.132;2023-02-28T15:00:26;14.30;47.40
76567;DHT22;65428;53.194;6.132;2023-02-28T15:02:52;14.20;50.70
76567;DHT22;65428;53.194;6.132;2023-02-28T15:05:26;14.10;51.20
76567;DHT22;65428;53.194;6.132;2023-02-28T15:08:13;13.80;49.10
76567;DHT22;65428;53.194;6.132;2023-02-28T15:11:24;13.20;51.20
76567;DHT22;65428;53.194;6.132;2023-02-28T15:13:39;13.00;51.60
76567;DHT22;65428;53.194;6.132;2023-02-28T15:18:59;13.50;49.80
76567;DHT22;65428;53.194;6.132;2023-02-28T15:21:28;13.70;48.70
76567;DHT22;65428;53.194;6.132;2023-02-28T15:24:08;13.70;48.70
76567;DHT22;65428;53.194;6.132;2023-02-28T15:26:39;13.30;51.00
76567;DHT22;65428;53.194;6.132;2023-02-28T15:29:14;12.80;50.90
76567;DHT22;65428;53.194;6.132;2023-02-28T15:31:44;12.30;51.00
76567;DHT22;65428;53.194;6.132;2023-02-28T15:34:35;11.80;54.60
76567;DHT22;65428;53.194;6.132;2023-02-28T15:37:01;11.40;54.80
76567;DHT22;65428;53.194;6.132;2023-02-28T15:39:28;11.20;57.80
76567;DHT22;65428;53.194;6.132;2023-02-28T15:42:11;10.80;59.90
76567;DHT22;65428;53.194;6.132;2023-02-28T15:44:38;10.60;57.80
76567;DHT22;65428;53.194;6.132;2023-02-28T15:47:06;10.40;60.20
76567;DHT22;65428;53.194;6.132;2023-02-28T15:49:45;10.20;59.80
76567;DHT22;65428;53.194;6.132;2023-02-28T15:52:16;10.00;61.90
76567;DHT22;65428;53.194;6.132;2023-02-28T15:54:44;9.90;62.60
76567;DHT22;65428;53.194;6.132;2023-02-28T15:57:15;9.70;63.10
76567;DHT22;65428;53.194;6.132;2023-02-28T16:00:00;9.40;61.80
76567;DHT22;65428;53.194;6.132;2023-02-28T16:02:35;9.10;63.30
76567;DHT22;65428;53.194;6.132;2023-02-28T16:07:37;8.90;67.60
76567;DHT22;65428;53.194;6.132;2023-02-28T16:10:04;8.80;67.60
76567;DHT22;65428;53.194;6.132;2023-02-28T16:12:33;8.80;68.30
76567;DHT22;65428;53.194;6.132;2023-02-28T16:15:02;8.70;67.50
76567;DHT22;65428;53.194;6.132;2023-02-28T16:17:34;8.60;66.70
76567;DHT22;65428;53.194;6.132;2023-02-28T16:20:00;8.50;68.70
76567;DHT22;65428;53.194;6.132;2023-02-28T16:22:26;8.40;67.30
76567;DHT22;65428;53.194;6.132;2023-02-28T16:24:52;8.30;69.50
76567;DHT22;65428;53.194;6.132;2023-02-28T16:27:21;8.20;71.50
76567;DHT22;65428;53.194;6.132;2023-02-28T16:29:50;8.10;73.50
76567;DHT22;65428;53.194;6.132;2023-02-28T16:32:16;8.10;75.70
76567;DHT22;65428;53.194;6.132;2023-02-28T16:34:43;8.30;74.60
76567;DHT22;65428;53.194;6.132;2023-02-28T16:37:12;8.00;74.80
76567;DHT22;65428;53.194;6.132;2023-02-28T16:39:38;7.90;76.30
76567;DHT22;65428;53.194;6.132;2023-02-28T16:42:04;7.80;75.50
76567;DHT22;65428;53.194;6.132;2023-02-28T16:44:35;7.70;74.90
76567;DHT22;65428;53.194;6.132;2023-02-28T16:47:02;7.70;75.40
76567;DHT22;65428;53.194;6.132;2023-02-28T16:49:28;7.60;77.80
76567;DHT22;65428;53.194;6.132;2023-02-28T16:51:54;7.50;77.20
76567;DHT22;65428;53.194;6.132;2023-02-28T16:54:20;7.40;79.00
76567;DHT22;65428;53.194;6.132;2023-02-28T16:56:47;7.30;79.40
76567;DHT22;65428;53.194;6.132;2023-02-28T16:59:17;7.20;78.40
76567;DHT22;65428;53.194;6.132;2023-02-28T17:01:43;6.90;77.40
76567;DHT22;65428;53.194;6.132;2023-02-28T17:04:10;6.90;81.70
76567;DHT22;65428;53.194;6.132;2023-02-28T17:06:36;6.60;84.10
76567;DHT22;65428;53.194;6.132;2023-02-28T17:09:02;6.50;86.00
76567;DHT22;65428;53.194;6.132;2023-02-28T17:11:28;6.50;88.00
76567;DHT22;65428;53.194;6.132;2023-02-28T17:13:54;6.50;88.20
76567;DHT22;65428;53.194;6.132;2023-02-28T17:16:26;6.40;89.20
76567;DHT22;65428;53.194;6.132;2023-02-28T17:18:55;6.30;89.70
76567;DHT22;65428;53.194;6.132;2023-02-28T17:21:22;6.20;90.00
76567;DHT22;65428;53.194;6.132;2023-02-28T17:23:47;6.10;90.80
76567;DHT22;65428;53.194;6.132;2023-02-28T17:26:18;6.00;90.90
76567;DHT22;65428;53.194;6.132;2023-02-28T17:28:50;6.00;90.90
76567;DHT22;65428;53.194;6.132;2023-02-28T17:31:16;5.80;91.30
76567;DHT22;65428;53.194;6.132;2023-02-28T17:33:42;6.00;91.60
76567;DHT22;65428;53.194;6.132;2023-02-28T17:36:13;5.60;91.80
76567;DHT22;65428;53.194;6.132;2023-02-28T17:38:40;5.40;92.30
76567;DHT22;65428;53.194;6.132;2023-02-28T17:41:06;5.30;92.90
76567;DHT22;65428;53.194;6.132;2023-02-28T17:43:33;5.10;93.60
76567;DHT22;65428;53.194;6.132;2023-02-28T17:45:58;5.00;93.70
76567;DHT22;65428;53.194;6.132;2023-02-28T17:48:24;4.90;93.60
76567;DHT22;65428;53.194;6.132;2023-02-28T17:50:50;4.90;94.10
76567;DHT22;65428;53.194;6.132;2023-02-28T17:53:16;4.50;94.10
76567;DHT22;65428;53.194;6.132;2023-02-28T17:55:42;4.40;94.70
76567;DHT22;65428;53.194;6.132;2023-02-28T17:58:11;4.30;95.50
76567;DHT22;65428;53.194;6.132;2023-02-28T18:00:38;4.10;95.90
76567;DHT22;65428;53.194;6.132;2023-02-28T18:03:03;4.00;96.20
76567;DHT22;65428;53.194;6.132;2023-02-28T18:05:29;4.00;96.20
76567;DHT22;65428;53.194;6.132;2023-02-28T18:07:55;3.90;96.20
76567;DHT22;65428;53.194;6.132;2023-02-28T18:10:22;3.90;96.00
76567;DHT22;65428;53.194;6.132;2023-02-28T18:12:50;3.80;96.10
76567;DHT22;65428;53.194;6.132;2023-02-28T18:15:17;3.80;96.00
76567;DHT22;65428;53.194;6.132;2023-02-28T18:17:43;3.80;95.90
76567;DHT22;65428;53.194;6.132;2023-02-28T18:20:10;3.70;95.50
76567;DHT22;65428;53.194;6.132;2023-02-28T18:22:37;3.70;95.80
76567;DHT22;65428;53.194;6.132;2023-02-28T18:25:04;3.90;96.40